Time;durP1;ratioP1;P1;durP2;ratioP2;P2;SDS_P1;SDS_P2;PMS_P1;PMS_P2;Temp;Humidity;BMP_temperature;BMP_pressure;BME280_temperature;BME280_humidity;BME280_pressure;Samples;Min_cycle;Max_cycle;Signal;HPM_P1;HPM_P2
2023/11/22 00:00:08;;;;;;;6.32;3.70;;;-0.80;99.90;;;;;;5020038;28;20048;-59
2023/11/22 00:02:34;;;;;;;10.50;4.63;;;-0.80;99.90;;;;;;5025827;28;20087;-59
2023/11/22 00:05:00;;;;;;;8.68;4.28;;;-0.80;99.90;;;;;;5022413;28;20025;-58
2023/11/22 00:07:28;;;;;;;10.50;4.68;;;-0.70;99.90;;;;;;5028726;28;20520;-58
2023/11/22 00:09:54;;;;;;;7.38;4.20;;;-0.60;99.90;;;;;;5024956;28;20029;-57
2023/11/22 00:12:20;;;;;;;9.02;3.97;;;-0.60;99.90;;;;;;5023099;28;20393;-59
2023/11/22 00:14:46;;;;;;;7.57;4.50;;;-0.50;99.90;;;;;;5029345;28;20033;-58
2023/11/22 00:17:12;;;;;;;10.13;4.60;;;-0.40;99.90;;;;;;5025187;28;20116;-59
2023/11/22 00:19:38;;;;;;;11.05;5.50;;;-0.30;99.90;;;;;;5022849;28;20025;-59
2023/11/22 00:22:11;;;;;;;8.80;4.00;;;-0.30;99.90;;;;;;5018504;28;20056;-59
2023/11/22 00:24:37;;;;;;;12.15;4.43;;;-0.20;99.90;;;;;;5019793;28;20390;-60
2023/11/22 00:27:02;;;;;;;11.60;5.50;;;-0.10;99.90;;;;;;5018718;28;20021;-57
2023/11/22 00:29:28;;;;;;;10.10;4.05;;;0.00;99.90;;;;;;5016577;28;20065;-59
2023/11/22 00:31:53;;;;;;;9.68;4.72;;;0.10;99.90;;;;;;5021106;28;20028;-59
2023/11/22 00:34:19;;;;;;;6.65;3.60;;;0.10;99.90;;;;;;5014464;28;20029;-59
2023/11/22 00:36:45;;;;;;;14.27;4.90;;;0.20;99.90;;;;;;5012641;28;20436;-59
2023/11/22 00:39:12;;;;;;;9.38;4.57;;;0.30;99.90;;;;;;5015567;28;20022;-58
2023/11/22 00:41:38;;;;;;;8.93;4.97;;;0.30;99.90;;;;;;5018370;28;20025;-58
2023/11/22 00:44:05;;;;;;;13.38;6.13;;;0.40;99.90;;;;;;5016422;28;20037;-58
2023/11/22 00:46:31;;;;;;;12.32;5.75;;;0.40;99.90;;;;;;5021738;28;20040;-59
2023/11/22 00:48:57;;;;;;;16.25;5.70;;;0.40;99.90;;;;;;5016112;28;20572;-56
2023/11/22 00:51:23;;;;;;;11.23;6.97;;;0.50;99.90;;;;;;5016426;28;20030;-57
2023/11/22 00:53:49;;;;;;;12.32;5.85;;;0.50;99.90;;;;;;5018644;28;20035;-58
2023/11/22 00:56:15;;;;;;;11.73;6.45;;;0.40;99.90;;;;;;5014210;28;20030;-62
2023/11/22 00:58:40;;;;;;;10.77;6.20;;;0.30;99.90;;;;;;5024782;28;20087;-58
2023/11/22 01:01:06;;;;;;;17.73;7.43;;;0.30;99.90;;;;;;5017648;28;20033;-59
2023/11/22 01:03:32;;;;;;;14.38;6.63;;;0.20;99.90;;;;;;5020075;28;20600;-59
2023/11/22 01:05:57;;;;;;;15.52;7.72;;;0.20;99.90;;;;;;5017029;28;20029;-57
2023/11/22 01:08:23;;;;;;;12.27;7.07;;;0.10;99.90;;;;;;5014064;28;20042;-58
2023/11/22 01:10:48;;;;;;;13.93;7.15;;;0.10;99.90;;;;;;5013335;28;20448;-59
2023/11/22 01:13:14;;;;;;;12.60;6.45;;;0.00;99.90;;;;;;5022694;28;20033;-59
2023/11/22 01:15:40;;;;;;;13.35;6.35;;;0.00;99.90;;;;;;5014884;28;20366;-59
2023/11/22 01:18:06;;;;;;;11.77;6.93;;;0.00;99.90;;;;;;5017248;28;20036;-60
2023/11/22 01:20:31;;;;;;;14.02;6.60;;;-0.10;99.90;;;;;;5013628;28;20033;-58
2023/11/22 01:22:56;;;;;;;12.63;6.20;;;-0.10;99.90;;;;;;5016434;28;20048;-60
2023/11/22 01:25:22;;;;;;;13.88;6.80;;;-0.20;99.90;;;;;;5015188;28;20037;-58
2023/11/22 01:27:48;;;;;;;12.45;6.32;;;-0.30;99.90;;;;;;5014128;28;20089;-60
2023/11/22 01:30:14;;;;;;;14.27;6.75;;;-0.30;99.90;;;;;;5015608;28;20032;-60
2023/11/22 01:32:40;;;;;;;9.60;5.63;;;-0.40;99.90;;;;;;5013789;28;20507;-59
2023/11/22 01:35:05;;;;;;;13.30;6.28;;;-0.40;99.90;;;;;;5015241;28;20022;-59
2023/11/22 01:37:32;;;;;;;11.52;6.15;;;-0.50;99.90;;;;;;5010039;28;20331;-60
2023/11/22 01:39:57;;;;;;;12.73;6.90;;;-0.60;99.90;;;;;;5017892;28;20033;-60
2023/11/22 01:42:25;;;;;;;10.05;5.05;;;-0.60;99.90;;;;;;5014879;28;20037;-61
2023/11/22 01:44:51;;;;;;;10.60;5.63;;;-0.60;99.90;;;;;;5013382;28;20034;-59
2023/11/22 01:47:17;;;;;;;12.10;6.10;;;-0.70;99.90;;;;;;5020114;28;20111;-60
2023/11/22 01:49:43;;;;;;;11.98;6.05;;;-0.80;99.90;;;;;;5018210;28;20526;-60
2023/11/22 01:52:08;;;;;;;10.50;6.10;;;-0.80;99.90;;;;;;5016649;28;20029;-60
2023/11/22 01:54:34;;;;;;;10.40;5.85;;;-0.80;99.90;;;;;;5013053;28;20026;-59
2023/11/22 01:57:01;;;;;;;10.35;5.35;;;-0.90;99.90;;;;;;5015972;28;20092;-60
2023/11/22 01:59:29;;;;;;;12.18;5.72;;;-0.90;99.90;;;;;;5014358;28;20382;-59
2023/11/22 02:01:54;;;;;;;9.63;5.28;;;-0.90;99.60;;;;;;5019512;28;20037;-60
2023/11/22 02:04:20;;;;;;;9.00;5.40;;;-1.00;99.70;;;;;;5011337;28;20111;-60
2023/11/22 02:06:46;;;;;;;12.38;5.95;;;-1.00;99.80;;;;;;5013517;28;20036;-59
2023/11/22 02:09:15;;;;;;;9.32;5.07;;;-1.10;99.60;;;;;;5019929;28;20033;-59
2023/11/22 02:11:49;;;;;;;8.18;4.82;;;-1.10;99.30;;;;;;5015711;28;20028;-60
2023/11/22 02:14:15;;;;;;;7.57;4.53;;;-1.20;99.20;;;;;;5015545;28;20053;-58
2023/11/22 02:16:41;;;;;;;8.18;4.68;;;-1.20;99.70;;;;;;5012933;28;20812;-58
2023/11/22 02:19:13;;;;;;;8.98;4.68;;;-1.30;99.20;;;;;;5015811;28;20018;-58
2023/11/22 02:21:38;;;;;;;8.45;4.45;;;-1.30;99.50;;;;;;5017993;28;20025;-59
2023/11/22 02:24:04;;;;;;;9.25;5.40;;;-1.30;98.90;;;;;;5014204;28;20044;-57
2023/11/22 02:26:31;;;;;;;10.00;4.90;;;-1.30;99.00;;;;;;5014502;28;20422;-59
2023/11/22 02:28:56;;;;;;;8.88;4.93;;;-1.30;97.90;;;;;;5020607;28;20025;-59
2023/11/22 02:31:22;;;;;;;8.43;5.07;;;-1.30;97.10;;;;;;5012245;28;20707;-59
2023/11/22 02:33:48;;;;;;;10.70;5.15;;;-1.30;97.00;;;;;;5014351;28;20025;-58
2023/11/22 02:36:13;;;;;;;10.38;5.43;;;-1.30;96.70;;;;;;5011637;28;20031;-59
2023/11/22 02:38:40;;;;;;;7.68;4.53;;;-1.40;96.90;;;;;;5012301;28;20071;-60
2023/11/22 02:41:05;;;;;;;9.20;4.47;;;-1.40;96.60;;;;;;5016167;28;20681;-59
2023/11/22 02:43:31;;;;;;;8.45;4.60;;;-1.40;96.90;;;;;;5013960;28;20040;-68
2023/11/22 02:45:57;;;;;;;9.45;4.55;;;-1.40;96.30;;;;;;5014240;28;20029;-56
2023/11/22 02:48:23;;;;;;;11.75;4.95;;;-1.40;95.90;;;;;;5017592;28;20037;-62
2023/11/22 02:50:49;;;;;;;7.68;4.82;;;-1.50;96.30;;;;;;5014382;28;20025;-62
2023/11/22 02:53:14;;;;;;;8.80;4.72;;;-1.50;96.10;;;;;;5012071;28;20084;-61
2023/11/22 02:55:40;;;;;;;10.88;5.00;;;-1.50;96.60;;;;;;5020264;28;20033;-61
2023/11/22 02:58:06;;;;;;;10.18;5.20;;;-1.60;96.80;;;;;;5017959;28;20025;-62
2023/11/22 03:00:34;;;;;;;10.02;4.88;;;-1.60;96.80;;;;;;5012916;28;20083;-62
2023/11/22 03:03:00;;;;;;;6.43;3.88;;;-1.60;96.70;;;;;;5012532;28;20022;-61
2023/11/22 03:05:25;;;;;;;9.82;4.68;;;-1.60;96.80;;;;;;5018391;28;20559;-61
2023/11/22 03:07:51;;;;;;;9.27;4.65;;;-1.70;97.10;;;;;;5018956;28;20185;-62
2023/11/22 03:10:17;;;;;;;7.40;4.22;;;-1.80;97.50;;;;;;5015333;28;20033;-61
2023/11/22 03:12:43;;;;;;;8.48;4.35;;;-1.80;97.80;;;;;;5018667;28;20113;-61
2023/11/22 03:15:09;;;;;;;9.13;4.10;;;-1.80;98.10;;;;;;5017682;28;20053;-62
2023/11/22 03:17:35;;;;;;;8.73;4.22;;;-1.90;98.40;;;;;;5012961;28;20034;-61
2023/11/22 03:20:00;;;;;;;6.32;3.67;;;-1.90;98.60;;;;;;5010661;28;20124;-61
2023/11/22 03:22:29;;;;;;;8.48;4.35;;;-2.00;98.70;;;;;;5013917;28;20489;-61
2023/11/22 03:24:55;;;;;;;8.13;4.10;;;-2.00;99.20;;;;;;5013979;28;20076;-61
2023/11/22 03:27:22;;;;;;;6.90;3.78;;;-2.10;99.50;;;;;;5013122;28;20038;-61
2023/11/22 03:29:47;;;;;;;7.72;4.38;;;-2.10;99.90;;;;;;5015634;28;20021;-61
2023/11/22 03:32:13;;;;;;;9.23;4.57;;;-2.20;99.90;;;;;;5011530;28;20034;-61
2023/11/22 03:34:38;;;;;;;9.20;4.70;;;-2.10;99.90;;;;;;5017561;28;20029;-62
2023/11/22 03:37:04;;;;;;;11.15;4.70;;;-2.10;99.90;;;;;;5009119;28;20044;-61
2023/11/22 03:39:29;;;;;;;8.02;4.22;;;-2.10;99.90;;;;;;5019542;28;20163;-60
2023/11/22 03:41:55;;;;;;;12.45;6.03;;;-2.10;99.90;;;;;;5011469;28;20390;-60
2023/11/22 03:44:20;;;;;;;12.20;6.45;;;-2.10;99.90;;;;;;5015279;28;20061;-60
2023/11/22 03:46:46;;;;;;;11.77;5.15;;;-2.10;99.90;;;;;;5013656;28;20486;-61
2023/11/22 03:49:12;;;;;;;10.30;4.85;;;-2.10;99.90;;;;;;5010923;28;20053;-61
2023/11/22 03:51:39;;;;;;;10.52;4.80;;;-2.10;99.90;;;;;;5014890;28;20754;-61
2023/11/22 03:54:04;;;;;;;8.45;4.75;;;-2.10;99.90;;;;;;5011383;28;20113;-61
2023/11/22 03:56:30;;;;;;;10.00;4.93;;;-2.20;99.90;;;;;;5013620;28;20116;-61
2023/11/22 03:58:56;;;;;;;9.32;4.85;;;-2.20;99.90;;;;;;5012157;28;20513;-61
2023/11/22 04:01:22;;;;;;;11.80;6.35;;;-2.20;99.90;;;;;;5013867;28;20488;-60
2023/11/22 04:03:51;;;;;;;12.15;6.13;;;-2.20;99.90;;;;;;5012135;28;20033;-60
2023/11/22 04:06:17;;;;;;;9.73;5.55;;;-2.20;99.90;;;;;;5015323;28;20592;-60
2023/11/22 04:08:43;;;;;;;12.88;5.85;;;-2.20;99.90;;;;;;5007117;28;20121;-61
2023/11/22 04:11:09;;;;;;;9.40;5.20;;;-2.30;99.90;;;;;;5015413;28;20099;-61
2023/11/22 04:13:35;;;;;;;13.82;6.10;;;-2.20;99.90;;;;;;5013626;28;20081;-61
2023/11/22 04:16:01;;;;;;;11.35;6.20;;;-2.30;99.90;;;;;;5018406;28;20452;-62
2023/11/22 04:18:27;;;;;;;9.23;5.30;;;-2.30;99.90;;;;;;5012470;28;20101;-61
2023/11/22 04:20:52;;;;;;;9.75;5.20;;;-2.30;99.90;;;;;;5011977;28;20026;-61
2023/11/22 04:23:18;;;;;;;10.13;5.03;;;-2.30;99.90;;;;;;5010774;28;20525;-61
2023/11/22 04:25:43;;;;;;;8.93;5.05;;;-2.30;99.90;;;;;;5013927;28;20153;-61
2023/11/22 04:28:09;;;;;;;9.65;6.10;;;-2.40;99.90;;;;;;5014028;28;20037;-62
2023/11/22 04:30:35;;;;;;;10.82;5.97;;;-2.30;99.90;;;;;;5013110;28;20165;-61
2023/11/22 04:33:01;;;;;;;9.57;4.90;;;-2.30;99.90;;;;;;5011425;28;20558;-60
2023/11/22 04:35:27;;;;;;;13.20;6.03;;;-2.30;99.90;;;;;;5030282;28;20107;-61
2023/11/22 04:37:55;;;;;;;12.35;5.95;;;-2.30;99.90;;;;;;5012886;28;20175;-62
2023/11/22 04:40:21;;;;;;;11.60;5.30;;;-2.20;99.90;;;;;;5023444;28;20493;-61
2023/11/22 04:42:48;;;;;;;12.27;5.88;;;-2.30;99.90;;;;;;5020045;28;20097;-62
2023/11/22 04:45:13;;;;;;;12.77;5.47;;;-2.30;99.90;;;;;;5018775;28;20018;-60
2023/11/22 04:47:39;;;;;;;10.40;5.35;;;-2.40;99.90;;;;;;5017582;28;20021;-61
2023/11/22 04:50:05;;;;;;;16.23;6.70;;;-2.40;99.90;;;;;;5015821;28;20029;-61
2023/11/22 04:52:31;;;;;;;11.63;4.80;;;-2.40;99.90;;;;;;5024332;28;20041;-61
2023/11/22 04:54:57;;;;;;;9.77;5.03;;;-2.40;99.90;;;;;;5021827;28;20108;-61
2023/11/22 04:57:22;;;;;;;10.73;5.53;;;-2.50;99.90;;;;;;5019266;28;20215;-60
2023/11/22 04:59:48;;;;;;;12.23;5.75;;;-2.50;99.90;;;;;;5018472;28;20025;-61
2023/11/22 05:02:13;;;;;;;7.88;4.70;;;-2.50;99.90;;;;;;5013281;28;20038;-61
2023/11/22 05:04:39;;;;;;;9.63;5.13;;;-2.50;99.90;;;;;;5017729;28;20033;-61
2023/11/22 05:07:04;;;;;;;9.80;5.35;;;-2.50;99.90;;;;;;5018935;28;20036;-61
2023/11/22 05:09:30;;;;;;;10.40;4.97;;;-2.50;99.90;;;;;;5020676;28;20025;-61
2023/11/22 05:11:55;;;;;;;9.30;4.38;;;-2.50;99.90;;;;;;5024898;28;20072;-62
2023/11/22 05:14:21;;;;;;;13.13;5.43;;;-2.50;99.90;;;;;;5018300;28;20038;-61
2023/11/22 05:16:46;;;;;;;11.35;5.00;;;-2.50;99.90;;;;;;5025134;28;20444;-61
2023/11/22 05:19:12;;;;;;;11.18;4.82;;;-2.50;99.90;;;;;;5015494;28;20041;-61
2023/11/22 05:21:37;;;;;;;8.32;4.50;;;-2.50;99.90;;;;;;5019332;28;20040;-61
2023/11/22 05:24:03;;;;;;;8.63;4.70;;;-2.60;99.90;;;;;;5015823;28;20120;-61
2023/11/22 05:26:29;;;;;;;12.20;4.75;;;-2.70;99.90;;;;;;5018966;28;20037;-61
2023/11/22 05:28:54;;;;;;;9.50;4.72;;;-2.70;99.90;;;;;;5021132;28;20064;-61
2023/11/22 05:31:20;;;;;;;9.35;4.15;;;-2.70;99.90;;;;;;5016009;28;20104;-61
2023/11/22 05:33:46;;;;;;;7.60;4.25;;;-2.80;99.90;;;;;;5014326;28;20602;-61
2023/11/22 05:36:12;;;;;;;9.05;5.20;;;-2.90;99.90;;;;;;5012853;28;20103;-62
2023/11/22 05:38:38;;;;;;;10.32;4.60;;;-2.90;99.90;;;;;;5015247;28;20118;-61
2023/11/22 05:41:03;;;;;;;7.15;4.50;;;-2.90;99.90;;;;;;5013470;28;20065;-61
2023/11/22 05:43:29;;;;;;;10.30;4.55;;;-3.00;99.90;;;;;;5015842;28;20057;-61
2023/11/22 05:45:55;;;;;;;9.13;4.53;;;-2.90;99.90;;;;;;5019769;28;20033;-61
2023/11/22 05:48:20;;;;;;;10.00;4.53;;;-3.00;99.90;;;;;;5024916;28;20513;-61
2023/11/22 05:50:47;;;;;;;8.98;4.63;;;-3.00;99.90;;;;;;5018722;28;20044;-60
2023/11/22 05:53:12;;;;;;;12.43;5.78;;;-3.00;99.90;;;;;;5014732;28;20510;-61
2023/11/22 05:55:38;;;;;;;9.50;4.68;;;-3.00;99.90;;;;;;5015063;28;20032;-62
2023/11/22 05:58:04;;;;;;;9.82;4.72;;;-3.10;99.90;;;;;;5013013;28;20041;-61
2023/11/22 06:00:30;;;;;;;9.25;4.63;;;-3.10;99.90;;;;;;5014763;28;20156;-61
2023/11/22 06:02:55;;;;;;;10.25;4.53;;;-3.20;99.90;;;;;;5015519;28;20070;-61
2023/11/22 06:05:21;;;;;;;8.50;3.95;;;-3.20;99.90;;;;;;5012572;28;20084;-60
2023/11/22 06:07:47;;;;;;;12.98;4.75;;;-3.20;99.90;;;;;;5018792;28;20071;-62
2023/11/22 06:10:14;;;;;;;8.63;4.75;;;-3.20;99.90;;;;;;5020300;28;20028;-61
2023/11/22 06:12:39;;;;;;;10.52;5.40;;;-3.30;99.90;;;;;;5020917;28;20021;-62
2023/11/22 06:15:06;;;;;;;8.00;4.72;;;-3.30;99.90;;;;;;5019300;28;20175;-61
2023/11/22 06:17:31;;;;;;;9.77;4.47;;;-3.40;99.90;;;;;;5020898;28;20030;-61
2023/11/22 06:19:57;;;;;;;8.85;4.30;;;-3.30;99.90;;;;;;5017971;28;20041;-61
2023/11/22 06:22:22;;;;;;;9.93;4.40;;;-3.40;99.90;;;;;;5022268;28;20033;-61
2023/11/22 06:24:47;;;;;;;9.00;4.68;;;-3.40;99.90;;;;;;5026231;28;20748;-61
2023/11/22 06:27:15;;;;;;;11.57;5.30;;;-3.40;99.90;;;;;;5021080;28;20026;-61
2023/11/22 06:29:43;;;;;;;10.50;4.90;;;-3.40;99.90;;;;;;5018138;28;20030;-61
2023/11/22 06:32:09;;;;;;;9.85;5.10;;;-3.30;99.90;;;;;;5022925;28;20366;-61
2023/11/22 06:34:36;;;;;;;9.82;5.47;;;-3.30;99.90;;;;;;5018875;28;20056;-60
2023/11/22 06:37:01;;;;;;;10.80;5.30;;;-3.30;99.90;;;;;;5013128;28;20064;-60
2023/11/22 06:39:27;;;;;;;8.80;4.78;;;-3.30;99.90;;;;;;5021214;28;20030;-61
2023/11/22 06:41:52;;;;;;;8.05;4.32;;;-3.30;99.90;;;;;;5021585;28;20021;-61
2023/11/22 06:44:18;;;;;;;8.93;5.43;;;-3.30;99.90;;;;;;5021999;28;20029;-62
2023/11/22 06:46:45;;;;;;;8.45;4.38;;;-3.40;99.90;;;;;;5021953;28;20049;-61
2023/11/22 06:49:10;;;;;;;8.93;4.85;;;-3.40;99.90;;;;;;5019972;28;20026;-60
2023/11/22 06:51:35;;;;;;;12.27;5.07;;;-3.40;99.90;;;;;;5019794;28;20025;-61
2023/11/22 06:54:01;;;;;;;8.23;4.75;;;-3.40;99.90;;;;;;5021826;28;20049;-61
2023/11/22 06:56:27;;;;;;;11.35;4.72;;;-3.40;99.90;;;;;;5018306;28;20108;-62
2023/11/22 06:58:53;;;;;;;8.73;4.28;;;-3.40;99.90;;;;;;5019380;28;20460;-61
2023/11/22 07:01:22;;;;;;;8.73;4.68;;;-3.40;99.90;;;;;;5021480;28;20053;-60
2023/11/22 07:03:49;;;;;;;13.40;5.32;;;-3.50;99.90;;;;;;5025879;28;20398;-61
2023/11/22 07:06:14;;;;;;;15.40;5.00;;;-3.50;99.90;;;;;;5019667;28;20040;-60
2023/11/22 07:08:40;;;;;;;10.70;4.88;;;-3.50;99.90;;;;;;5019709;28;20495;-60
2023/11/22 07:11:09;;;;;;;11.90;5.25;;;-3.50;99.90;;;;;;5021404;28;20123;-61
2023/11/22 07:13:36;;;;;;;12.13;5.50;;;-3.60;99.90;;;;;;5017593;28;20458;-61
2023/11/22 07:16:04;;;;;;;9.65;5.22;;;-3.50;99.90;;;;;;5019645;28;20479;-61
2023/11/22 07:18:29;;;;;;;13.02;6.47;;;-3.50;99.90;;;;;;5015601;28;20064;-61
2023/11/22 07:20:55;;;;;;;11.60;6.15;;;-3.40;99.90;;;;;;5028197;28;20025;-61
2023/11/22 07:23:25;;;;;;;10.57;4.82;;;-3.40;99.90;;;;;;5016994;28;20030;-60
2023/11/22 07:25:50;;;;;;;14.43;6.40;;;-3.40;99.90;;;;;;5022391;28;20021;-61
2023/11/22 07:28:16;;;;;;;10.75;5.95;;;-3.30;99.90;;;;;;5016867;28;20037;-60
2023/11/22 07:30:41;;;;;;;8.95;5.20;;;-3.20;99.90;;;;;;5020966;28;20041;-61
2023/11/22 07:33:08;;;;;;;10.13;5.80;;;-3.10;99.90;;;;;;5022714;28;20056;-61
2023/11/22 07:35:33;;;;;;;12.43;6.10;;;-3.00;99.90;;;;;;5015944;28;20070;-61
2023/11/22 07:37:59;;;;;;;12.82;6.10;;;-3.00;99.90;;;;;;5007999;28;20045;-60
2023/11/22 07:40:24;;;;;;;12.85;5.97;;;-2.90;99.90;;;;;;5017775;28;20045;-61
2023/11/22 07:42:50;;;;;;;8.35;5.30;;;-2.80;99.90;;;;;;5027047;28;20450;-61
2023/11/22 07:45:16;;;;;;;13.45;5.15;;;-2.70;99.90;;;;;;5017434;28;20359;-61
2023/11/22 07:47:43;;;;;;;9.00;5.28;;;-2.50;99.90;;;;;;5020000;28;20018;-61
2023/11/22 07:50:11;;;;;;;11.95;6.28;;;-2.40;99.90;;;;;;5021674;28;20187;-61
2023/11/22 07:52:38;;;;;;;11.02;5.10;;;-2.30;99.90;;;;;;5015989;28;20029;-61
2023/11/22 07:55:05;;;;;;;10.30;5.15;;;-2.10;99.90;;;;;;5019986;28;20053;-61
2023/11/22 07:57:31;;;;;;;10.18;5.22;;;-2.00;99.90;;;;;;5016114;28;20730;-61
2023/11/22 07:59:56;;;;;;;12.75;6.13;;;-1.90;99.90;;;;;;5022657;28;20048;-61
2023/11/22 08:02:22;;;;;;;12.13;5.53;;;-1.90;99.90;;;;;;5017486;28;20409;-61
2023/11/22 08:04:50;;;;;;;12.13;6.05;;;-1.70;99.90;;;;;;5019142;28;20090;-61
2023/11/22 08:07:16;;;;;;;14.10;6.55;;;-1.50;99.90;;;;;;5021949;28;20025;-61
2023/11/22 08:09:43;;;;;;;12.75;6.38;;;-1.30;99.90;;;;;;5015968;28;20896;-61
2023/11/22 08:12:11;;;;;;;12.60;6.63;;;-1.10;99.90;;;;;;5023198;28;20132;-61
2023/11/22 08:14:36;;;;;;;15.63;7.63;;;-0.90;99.90;;;;;;5021623;28;20124;-61
2023/11/22 08:17:03;;;;;;;14.90;7.43;;;-0.60;99.90;;;;;;5024132;28;20314;-61
2023/11/22 08:19:29;;;;;;;12.57;7.28;;;-0.40;99.90;;;;;;5022809;28;20500;-61
2023/11/22 08:21:54;;;;;;;10.70;6.47;;;-0.10;99.90;;;;;;5024692;28;20096;-61
2023/11/22 08:24:20;;;;;;;11.50;6.25;;;0.10;99.90;;;;;;5026830;28;20061;-61
2023/11/22 08:26:46;;;;;;;14.80;6.47;;;0.30;99.90;;;;;;5022851;28;20075;-62
2023/11/22 08:29:11;;;;;;;9.57;5.75;;;0.50;99.90;;;;;;5023400;28;20516;-61
2023/11/22 08:31:37;;;;;;;9.48;5.93;;;0.70;99.90;;;;;;5022495;28;20434;-59
2023/11/22 08:34:06;;;;;;;12.65;6.65;;;0.90;99.90;;;;;;5028325;28;20096;-59
2023/11/22 08:36:33;;;;;;;9.50;5.82;;;1.10;99.90;;;;;;5018390;28;20041;-59
2023/11/22 08:39:00;;;;;;;11.95;7.57;;;1.30;99.90;;;;;;5020320;28;20033;-59
2023/11/22 08:41:27;;;;;;;12.00;6.35;;;1.40;99.90;;;;;;5025450;28;20032;-59
2023/11/22 08:43:52;;;;;;;11.23;6.53;;;1.50;99.90;;;;;;5023051;28;21169;-59
2023/11/22 08:46:18;;;;;;;9.48;6.45;;;1.60;99.90;;;;;;5022382;28;20057;-59
2023/11/22 08:48:43;;;;;;;10.63;6.78;;;1.60;99.90;;;;;;5024272;28;20488;-58
2023/11/22 08:51:10;;;;;;;11.65;6.47;;;1.70;99.90;;;;;;5020503;28;20033;-59
2023/11/22 08:53:35;;;;;;;11.30;6.68;;;1.70;99.90;;;;;;5031967;28;20039;-58
2023/11/22 08:56:04;;;;;;;15.43;7.47;;;1.70;97.50;;;;;;5020614;28;20026;-58
2023/11/22 08:58:30;;;;;;;11.85;7.03;;;1.80;98.30;;;;;;5021900;28;20383;-58
2023/11/22 09:00:57;;;;;;;14.73;7.03;;;1.80;97.30;;;;;;5022181;28;20048;-58
2023/11/22 09:03:23;;;;;;;12.23;6.47;;;1.90;97.60;;;;;;5021802;28;20033;-58
2023/11/22 09:05:49;;;;;;;10.88;6.10;;;1.90;95.20;;;;;;5021773;28;20027;-58
2023/11/22 09:08:15;;;;;;;10.80;6.32;;;1.80;94.30;;;;;;5021843;28;20551;-58
2023/11/22 09:10:44;;;;;;;10.45;7.13;;;1.80;91.80;;;;;;5027554;28;20389;-58
2023/11/22 09:13:10;;;;;;;10.40;6.55;;;1.70;91.00;;;;;;5019588;28;20018;-58
2023/11/22 09:15:38;;;;;;;10.68;6.65;;;1.70;87.90;;;;;;5021794;28;20554;-58
2023/11/22 09:18:04;;;;;;;11.80;7.43;;;1.60;87.30;;;;;;5017785;28;20029;-58
2023/11/22 09:20:30;;;;;;;11.27;6.60;;;1.60;87.40;;;;;;5023362;28;20025;-58
2023/11/22 09:22:55;;;;;;;10.45;6.18;;;1.70;86.90;;;;;;5021121;28;20048;-58
2023/11/22 09:25:22;;;;;;;9.18;5.38;;;1.70;87.60;;;;;;5019799;28;20409;-58
2023/11/22 09:27:51;;;;;;;11.63;5.90;;;1.80;88.20;;;;;;5025043;28;20017;-58
2023/11/22 09:30:32;;;;;;;11.27;6.20;;;2.00;86.80;;;;;;5023652;28;20117;-57
2023/11/22 09:32:59;;;;;;;9.82;6.28;;;1.90;86.20;;;;;;5025850;28;20053;-58
2023/11/22 09:35:25;;;;;;;10.15;6.03;;;1.90;85.60;;;;;;5019097;28;20489;-58
2023/11/22 09:37:51;;;;;;;12.13;6.20;;;1.90;83.80;;;;;;5016329;28;20562;-58
2023/11/22 09:40:17;;;;;;;10.65;6.25;;;1.80;83.60;;;;;;5021063;28;20124;-57
2023/11/22 09:42:50;;;;;;;11.35;5.75;;;1.80;82.60;;;;;;5023092;28;20033;-58
2023/11/22 09:45:18;;;;;;;8.70;5.00;;;1.80;82.50;;;;;;5018222;28;20129;-57
2023/11/22 09:47:45;;;;;;;9.15;5.65;;;1.80;82.10;;;;;;5017967;28;20454;-57
2023/11/22 09:50:18;;;;;;;11.10;7.15;;;1.90;82.20;;;;;;5024483;28;20525;-57
2023/11/22 09:52:50;;;;;;;10.60;5.93;;;1.90;82.90;;;;;;5020192;28;20370;-57
2023/11/22 09:55:15;;;;;;;7.95;4.95;;;1.90;81.80;;;;;;5017402;28;20030;-58
2023/11/22 09:57:41;;;;;;;9.65;5.70;;;1.90;81.70;;;;;;5024064;28;20078;-58
2023/11/22 10:00:13;;;;;;;9.75;6.15;;;2.00;80.40;;;;;;5018399;28;20030;-57
2023/11/22 10:02:40;;;;;;;12.20;6.55;;;1.90;80.70;;;;;;5019467;28;20386;-60
2023/11/22 10:05:06;;;;;;;11.77;6.20;;;1.90;79.30;;;;;;5026811;28;20500;-60
2023/11/22 10:07:32;;;;;;;12.85;6.60;;;1.80;78.90;;;;;;5025026;28;20030;-60
2023/11/22 10:10:01;;;;;;;11.20;6.65;;;1.80;79.10;;;;;;5020743;28;20040;-60
2023/11/22 10:12:29;;;;;;;15.52;6.55;;;1.70;78.60;;;;;;5020643;28;20025;-59
2023/11/22 10:14:57;;;;;;;11.48;5.78;;;1.70;79.20;;;;;;5020799;28;20116;-60
2023/11/22 10:17:22;;;;;;;10.98;5.95;;;1.60;79.50;;;;;;5020610;28;20403;-60
2023/11/22 10:19:47;;;;;;;10.98;5.45;;;1.70;79.60;;;;;;5017969;28;20022;-60
2023/11/22 10:22:17;;;;;;;12.73;6.93;;;1.70;80.40;;;;;;5022491;28;20033;-60
2023/11/22 10:24:43;;;;;;;9.73;5.60;;;1.70;80.20;;;;;;5020460;28;20101;-61
2023/11/22 10:27:10;;;;;;;10.20;6.13;;;1.70;79.80;;;;;;5025085;28;20497;-60
2023/11/22 10:29:36;;;;;;;9.95;5.50;;;1.70;80.30;;;;;;5016767;28;20252;-60
2023/11/22 10:32:03;;;;;;;37.42;14.35;;;1.60;78.70;;;;;;5017006;28;20267;-60
2023/11/22 10:34:29;;;;;;;14.35;7.15;;;1.60;79.90;;;;;;5024224;28;20485;-60
2023/11/22 10:36:55;;;;;;;11.40;6.00;;;1.60;79.40;;;;;;5017197;28;20050;-60
2023/11/22 10:39:21;;;;;;;9.82;5.65;;;1.60;78.30;;;;;;5018919;28;20108;-60
2023/11/22 10:41:48;;;;;;;10.82;5.32;;;1.60;79.70;;;;;;5019779;28;20104;-60
2023/11/22 10:44:16;;;;;;;11.57;5.78;;;1.70;80.10;;;;;;5020813;28;20094;-60
2023/11/22 10:46:42;;;;;;;8.63;5.03;;;1.70;79.50;;;;;;5016676;28;20060;-60
2023/11/22 10:49:08;;;;;;;9.90;5.75;;;1.80;79.10;;;;;;5020212;28;20086;-60
2023/11/22 10:51:34;;;;;;;10.18;5.43;;;1.80;80.00;;;;;;5020511;28;20056;-60
2023/11/22 10:54:01;;;;;;;12.23;6.28;;;1.90;79.90;;;;;;5018191;28;20402;-60
2023/11/22 10:56:28;;;;;;;14.48;5.32;;;2.00;78.10;;;;;;5022962;28;20036;-60
2023/11/22 10:58:57;;;;;;;8.15;4.85;;;2.00;77.40;;;;;;5013538;28;20025;-57
2023/11/22 11:01:29;;;;;;;8.75;5.05;;;2.00;77.10;;;;;;5030187;28;20025;-57
2023/11/22 11:04:03;;;;;;;9.88;5.47;;;1.80;77.10;;;;;;5020447;28;20025;-55
2023/11/22 11:06:35;;;;;;;10.25;5.45;;;1.80;77.50;;;;;;5019709;28;20108;-57
2023/11/22 11:09:08;;;;;;;9.73;4.88;;;1.70;78.00;;;;;;5013311;28;20126;-58
2023/11/22 11:11:35;;;;;;;7.25;4.90;;;1.80;78.70;;;;;;5022239;28;20485;-58
2023/11/22 11:14:02;;;;;;;9.18;4.68;;;1.80;78.30;;;;;;5017946;28;20025;-57
2023/11/22 11:16:31;;;;;;;8.02;4.43;;;1.70;78.20;;;;;;5018343;28;20030;-57
2023/11/22 11:18:57;;;;;;;8.52;4.63;;;1.80;78.90;;;;;;5025656;28;20044;-58
2023/11/22 11:21:25;;;;;;;9.23;4.53;;;1.80;78.90;;;;;;5023490;28;20083;-57
2023/11/22 11:23:52;;;;;;;7.70;4.45;;;1.80;79.70;;;;;;5019402;28;20104;-58
2023/11/22 11:26:21;;;;;;;8.50;5.00;;;1.80;78.80;;;;;;5015480;28;20053;-58
2023/11/22 11:28:48;;;;;;;9.30;5.65;;;1.80;78.00;;;;;;5021299;28;20029;-58
2023/11/22 11:31:14;;;;;;;11.32;5.25;;;1.80;79.10;;;;;;5020054;28;20053;-58
2023/11/22 11:33:53;;;;;;;18.02;7.53;;;1.90;77.50;;;;;;5017175;28;20085;-58
2023/11/22 11:36:28;;;;;;;8.93;5.05;;;2.00;77.60;;;;;;5019740;28;20933;-57
2023/11/22 11:38:55;;;;;;;9.88;5.22;;;2.10;78.00;;;;;;5009456;28;20521;-58
2023/11/22 11:41:32;;;;;;;11.43;5.85;;;2.10;78.60;;;;;;5020881;28;20032;-58
2023/11/22 11:43:58;;;;;;;10.80;5.43;;;2.30;78.90;;;;;;5022589;28;20032;-57
2023/11/22 11:46:25;;;;;;;10.20;6.15;;;2.40;77.30;;;;;;5022538;28;20356;-58
2023/11/22 11:48:51;;;;;;;16.13;6.90;;;2.40;77.00;;;;;;5026506;28;20013;-61
2023/11/22 11:51:18;;;;;;;8.93;5.65;;;2.30;76.10;;;;;;5022775;28;20109;-60
2023/11/22 11:53:47;;;;;;;9.63;5.35;;;2.30;76.30;;;;;;5029767;28;20017;-60
2023/11/22 11:56:13;;;;;;;9.63;5.38;;;2.30;76.50;;;;;;5030338;28;20021;-60
2023/11/22 11:58:42;;;;;;;9.15;5.63;;;2.30;76.50;;;;;;5031376;28;20083;-60
2023/11/22 12:01:07;;;;;;;9.45;5.20;;;2.30;76.00;;;;;;5027909;28;20083;-60
2023/11/22 12:03:36;;;;;;;10.52;5.60;;;2.30;76.70;;;;;;5025488;28;20033;-61
2023/11/22 12:06:01;;;;;;;9.15;5.63;;;2.30;73.60;;;;;;5025591;28;20063;-60
2023/11/22 12:08:30;;;;;;;10.82;5.63;;;2.20;75.00;;;;;;5025584;28;20041;-60
2023/11/22 12:10:58;;;;;;;8.77;4.97;;;2.20;75.20;;;;;;5025405;28;20033;-60
2023/11/22 12:13:24;;;;;;;8.40;5.32;;;2.20;74.40;;;;;;5020134;28;20415;-60
2023/11/22 12:15:53;;;;;;;8.95;5.45;;;2.10;74.60;;;;;;5029707;28;20036;-60
2023/11/22 12:18:19;;;;;;;10.65;5.15;;;2.10;73.80;;;;;;5025607;28;20071;-60
2023/11/22 12:20:58;;;;;;;8.63;5.38;;;2.10;75.10;;;;;;5029741;28;20033;-60
2023/11/22 12:23:25;;;;;;;7.93;4.35;;;2.00;75.10;;;;;;5025153;28;20120;-60
2023/11/22 12:25:57;;;;;;;9.10;5.28;;;1.90;74.30;;;;;;5025425;28;20021;-60
2023/11/22 12:28:26;;;;;;;10.15;5.25;;;2.00;75.70;;;;;;5025488;28;20029;-60
2023/11/22 12:30:51;;;;;;;10.40;5.40;;;1.90;75.90;;;;;;5031250;28;20022;-60
2023/11/22 12:33:19;;;;;;;13.68;8.73;;;1.80;74.80;;;;;;5027832;28;20374;-60
2023/11/22 12:35:45;;;;;;;12.80;7.03;;;1.90;74.30;;;;;;5029106;28;20393;-60
2023/11/22 12:38:10;;;;;;;8.57;5.88;;;1.90;74.60;;;;;;5026866;28;20045;-60
2023/11/22 12:40:36;;;;;;;9.38;5.53;;;1.90;75.10;;;;;;5026316;28;20090;-60